Time;durP1;ratioP1;P1;durP2;ratioP2;P2;SDS_P1;SDS_P2;PMS_P1;PMS_P2;Temp;Humidity;BMP_temperature;BMP_pressure;BME280_temperature;BME280_humidity;BME280_pressure;Samples;Min_cycle;Max_cycle;Signal;HPM_P1;HPM_P2
2023/10/23 00:01:17;;;;;;;0.50;0.50;;;;;;;6.78;100.00;97744.53;6234367;28;20228;-53
2023/10/23 00:04:19;;;;;;;0.40;0.40;;;;;;;6.75;100.00;97739.66;6230905;28;20245;-52
2023/10/23 00:07:22;;;;;;;1.50;0.57;;;;;;;6.69;100.00;97742.16;6233686;28;20863;-52
2023/10/23 00:10:24;;;;;;;0.93;0.73;;;;;;;6.61;100.00;97738.97;6227567;28;20297;-53
2023/10/23 00:13:26;;;;;;;1.10;0.53;;;;;;;6.59;100.00;97749.75;6229567;28;20229;-51
2023/10/23 00:16:28;;;;;;;1.03;0.63;;;;;;;6.57;100.00;97754.47;6229000;28;20232;-51
2023/10/23 00:19:31;;;;;;;0.57;0.30;;;;;;;6.56;100.00;97757.34;6226900;28;20242;-49
2023/10/23 00:22:33;;;;;;;1.60;0.70;;;;;;;6.55;100.00;97747.75;6225737;28;20234;-51
2023/10/23 00:25:35;;;;;;;2.20;0.63;;;;;;;6.54;100.00;97744.31;6226438;28;20254;-52
2023/10/23 00:28:37;;;;;;;1.07;0.43;;;;;;;6.55;100.00;97747.75;6227407;28;20376;-52
2023/10/23 00:31:40;;;;;;;1.57;0.40;;;;;;;6.53;100.00;97742.69;6234677;28;20808;-52
2023/10/23 00:34:42;;;;;;;1.17;0.50;;;;;;;6.55;100.00;97748.59;6223303;28;20247;-51
2023/10/23 00:37:44;;;;;;;0.73;0.30;;;;;;;6.62;100.00;97753.84;6227991;28;20234;-53
2023/10/23 00:40:47;;;;;;;2.20;0.53;;;;;;;6.65;100.00;97756.88;6227163;28;20243;-54
2023/10/23 00:43:50;;;;;;;0.97;0.40;;;;;;;6.67;100.00;97757.44;6228067;28;20329;-51
2023/10/23 00:46:52;;;;;;;2.00;0.60;;;;;;;6.42;100.00;97712.44;6226406;28;20242;-53
2023/10/23 00:49:57;;;;;;;0.50;0.30;;;;;;;6.68;100.00;97760.91;6227374;28;20242;-53
2023/10/23 00:52:59;;;;;;;1.10;0.30;;;;;;;6.67;100.00;97749.50;6227610;28;20260;-53
2023/10/23 00:56:07;;;;;;;1.70;0.37;;;;;;;6.68;100.00;97748.47;6227894;28;20226;-50
2023/10/23 00:59:09;;;;;;;1.13;0.40;;;;;;;6.71;100.00;97742.75;6223204;28;20232;-53
2023/10/23 01:02:12;;;;;;;0.30;0.30;;;;;;;6.79;100.00;97746.97;6226081;28;20253;-53
2023/10/23 01:05:14;;;;;;;0.50;0.40;;;;;;;6.83;100.00;97744.72;6225580;28;20274;-50
2023/10/23 01:08:18;;;;;;;0.37;0.30;;;;;;;6.88;100.00;97744.88;6226786;28;20294;-52
2023/10/23 01:11:20;;;;;;;1.53;0.40;;;;;;;6.92;100.00;97741.56;6223733;28;20714;-51
2023/10/23 01:14:22;;;;;;;0.23;0.20;;;;;;;6.90;100.00;97738.34;6228669;28;20223;-47
2023/10/23 01:17:24;;;;;;;0.50;0.50;;;;;;;6.90;100.00;97733.06;6238085;28;20230;-53
2023/10/23 01:20:28;;;;;;;0.30;0.30;;;;;;;6.76;100.00;97709.53;6226357;28;20332;-53
2023/10/23 01:23:34;;;;;;;1.23;0.60;;;;;;;6.83;100.00;97734.91;6224041;28;20604;-52
2023/10/23 01:26:36;;;;;;;0.50;0.50;;;;;;;6.79;100.00;97727.63;6225182;28;20238;-54
2023/10/23 01:29:39;;;;;;;1.53;0.37;;;;;;;6.63;100.00;97710.44;6227738;28;20699;-53
2023/10/23 01:32:41;;;;;;;0.77;0.47;;;;;;;6.66;100.00;97723.25;6225879;28;20242;-53
2023/10/23 01:35:43;;;;;;;0.40;0.40;;;;;;;6.65;100.00;97724.28;6231808;28;20239;-51
2023/10/23 01:38:45;;;;;;;0.40;0.40;;;;;;;6.65;100.00;97719.81;6229209;28;20285;-52
2023/10/23 01:41:48;;;;;;;0.50;0.47;;;;;;;6.60;100.00;97717.00;6240938;28;20222;-53
2023/10/23 01:44:50;;;;;;;0.30;0.30;;;;;;;6.58;100.00;97724.31;6232673;28;20297;-52
2023/10/23 01:47:52;;;;;;;1.03;0.40;;;;;;;6.56;100.00;97731.69;6232372;28;20748;-52
2023/10/23 01:50:55;;;;;;;1.17;0.50;;;;;;;6.52;100.00;97729.69;6232069;28;20234;-53
2023/10/23 01:53:58;;;;;;;0.57;0.43;;;;;;;6.49;100.00;97732.75;6229626;28;20312;-54
2023/10/23 01:57:00;;;;;;;0.83;0.53;;;;;;;6.43;100.00;97732.56;6230255;28;20243;-50
2023/10/23 02:00:04;;;;;;;1.90;0.60;;;;;;;6.42;100.00;97714.28;6227868;28;20227;-51
2023/10/23 02:03:13;;;;;;;2.50;0.43;;;;;;;6.38;100.00;97710.44;6230387;28;20238;-50
2023/10/23 02:06:16;;;;;;;0.87;0.77;;;;;;;6.37;100.00;97709.63;6242224;28;20215;-52
2023/10/23 02:09:19;;;;;;;1.27;0.50;;;;;;;6.36;100.00;97702.72;6231632;28;20222;-52
2023/10/23 02:12:24;;;;;;;3.07;0.77;;;;;;;6.40;100.00;97708.38;6230998;28;20242;-53
2023/10/23 02:15:26;;;;;;;0.70;0.70;;;;;;;6.43;100.00;97714.06;6233332;28;20238;-50
2023/10/23 02:18:29;;;;;;;0.63;0.63;;;;;;;6.33;100.00;97697.84;6231913;28;20246;-51
2023/10/23 02:21:31;;;;;;;1.10;0.60;;;;;;;6.35;100.00;97708.19;6228486;28;20236;-52
2023/10/23 02:24:34;;;;;;;6.87;0.90;;;;;;;6.36;100.00;97705.34;6232220;28;20242;-52
2023/10/23 02:27:36;;;;;;;0.97;0.50;;;;;;;6.39;100.00;97707.56;6228220;28;20255;-54
2023/10/23 02:30:38;;;;;;;2.00;0.50;;;;;;;6.41;100.00;97712.66;6229212;28;20871;-52
2023/10/23 02:33:41;;;;;;;0.60;0.60;;;;;;;6.47;100.00;97712.59;6230889;28;20232;-53
2023/10/23 02:36:43;;;;;;;3.50;0.70;;;;;;;6.54;100.00;97709.09;6231402;28;20254;-51
2023/10/23 02:39:46;;;;;;;0.47;0.47;;;;;;;6.53;100.00;97702.19;6230466;28;20243;-53
2023/10/23 02:42:48;;;;;;;0.60;0.60;;;;;;;6.57;100.00;97713.97;6229820;28;20226;-52
2023/10/23 02:45:50;;;;;;;1.00;0.60;;;;;;;6.58;100.00;97700.50;6231227;28;20252;-52
2023/10/23 02:48:53;;;;;;;0.50;0.50;;;;;;;6.71;100.00;97715.50;6230903;28;20318;-53
2023/10/23 02:51:55;;;;;;;1.17;0.57;;;;;;;6.57;100.00;97696.25;6229646;28;20238;-53
2023/10/23 02:54:58;;;;;;;1.50;0.87;;;;;;;6.76;100.00;97723.59;6231130;28;20235;-52
2023/10/23 02:58:00;;;;;;;0.67;0.57;;;;;;;6.78;100.00;97728.66;6230624;28;20307;-51
2023/10/23 03:01:13;;;;;;;1.13;0.60;;;;;;;6.76;100.00;97734.19;6229751;28;20697;-51
2023/10/23 03:04:16;;;;;;;1.10;0.90;;;;;;;6.79;100.00;97744.31;6230035;28;20321;-53
2023/10/23 03:07:18;;;;;;;0.90;0.90;;;;;;;6.84;100.00;97738.38;6229951;28;21327;-53
2023/10/23 03:10:20;;;;;;;0.77;0.63;;;;;;;6.87;100.00;97733.47;6228587;28;20358;-53
2023/10/23 03:13:23;;;;;;;0.93;0.70;;;;;;;6.89;100.00;97739.34;6233414;28;20239;-52
2023/10/23 03:16:25;;;;;;;0.90;0.70;;;;;;;6.92;100.00;97746.06;6227667;28;20758;-52
2023/10/23 03:19:27;;;;;;;0.70;0.60;;;;;;;6.77;100.00;97721.75;6229933;28;20770;-51
2023/10/23 03:22:32;;;;;;;0.90;0.70;;;;;;;6.98;100.00;97761.09;6213176;28;20253;-53
2023/10/23 03:25:34;;;;;;;0.83;0.70;;;;;;;6.97;100.00;97762.13;6229260;28;20240;-52
2023/10/23 03:28:37;;;;;;;0.80;0.80;;;;;;;6.94;100.00;97763.34;6230870;28;20309;-53
2023/10/23 03:31:39;;;;;;;3.20;0.70;;;;;;;6.97;100.00;97764.75;6230220;28;20227;-53
2023/10/23 03:34:41;;;;;;;1.00;0.90;;;;;;;6.95;100.00;97757.03;6227384;28;20227;-51
2023/10/23 03:37:44;;;;;;;0.60;0.60;;;;;;;6.95;100.00;97757.03;6230169;28;21071;-54
2023/10/23 03:40:57;;;;;;;1.53;1.17;;;;;;;6.96;100.00;97756.00;6228323;28;20948;-52
2023/10/23 03:44:02;;;;;;;1.03;0.70;;;;;;;6.97;100.00;97754.97;6230282;28;20259;-52
2023/10/23 03:47:04;;;;;;;2.40;0.60;;;;;;;6.97;100.00;97756.81;6224615;28;20319;-53
2023/10/23 03:50:07;;;;;;;2.37;0.60;;;;;;;6.95;100.00;97749.09;6227409;28;20294;-52
2023/10/23 03:53:09;;;;;;;1.83;0.80;;;;;;;6.92;100.00;97756.66;6228011;28;20888;-53
2023/10/23 03:56:11;;;;;;;1.93;0.80;;;;;;;6.88;100.00;97755.47;6228303;28;20735;-54
2023/10/23 03:59:14;;;;;;;1.90;0.83;;;;;;;6.87;100.00;97757.31;6227973;28;20294;-51
2023/10/23 04:02:16;;;;;;;1.13;0.63;;;;;;;6.87;100.00;97757.31;6229233;28;20884;-53
2023/10/23 04:05:18;;;;;;;1.20;0.60;;;;;;;6.86;100.00;97758.34;6228397;28;20228;-51
2023/10/23 04:08:20;;;;;;;2.13;0.70;;;;;;;6.86;100.00;97755.69;6227966;28;20622;-50
2023/10/23 04:11:23;;;;;;;2.10;0.80;;;;;;;6.87;100.00;97753.84;6227322;28;20232;-52
2023/10/23 04:14:25;;;;;;;0.80;0.70;;;;;;;6.88;100.00;97752.81;6229977;28;20230;-55
2023/10/23 04:17:28;;;;;;;2.53;0.97;;;;;;;6.88;100.00;97743.03;6211014;28;20645;-53
2023/10/23 04:20:30;;;;;;;2.73;1.00;;;;;;;6.90;100.00;97737.53;6229812;28;20230;-51
2023/10/23 04:23:33;;;;;;;1.83;0.90;;;;;;;6.80;100.00;97727.44;6228643;28;20231;-53
2023/10/23 04:26:36;;;;;;;2.97;1.17;;;;;;;6.84;100.00;97743.69;6228691;28;20234;-52
2023/10/23 04:29:39;;;;;;;8.03;1.20;;;;;;;6.84;100.00;97749.78;6232654;28;20241;-51
2023/10/23 04:32:41;;;;;;;1.93;1.27;;;;;;;6.84;100.00;97741.84;6231586;28;20297;-52
2023/10/23 04:35:44;;;;;;;3.37;1.10;;;;;;;6.85;100.00;97745.31;6228149;28;20235;-51
2023/10/23 04:38:48;;;;;;;2.20;0.90;;;;;;;6.85;100.00;97743.47;6227833;28;20609;-52
2023/10/23 04:41:50;;;;;;;6.07;1.17;;;;;;;6.83;100.00;97742.06;6227185;28;20243;-51
2023/10/23 04:44:53;;;;;;;3.40;1.10;;;;;;;6.73;100.00;97734.59;6227369;28;20791;-50
2023/10/23 04:47:55;;;;;;;1.47;0.93;;;;;;;6.75;100.00;97737.03;6227421;28;20353;-53
2023/10/23 04:51:02;;;;;;;0.70;0.70;;;;;;;6.77;100.00;97740.28;6228804;28;20534;-53
2023/10/23 04:54:04;;;;;;;5.93;1.37;;;;;;;6.75;100.00;97737.03;6239120;28;20743;-52
2023/10/23 04:57:08;;;;;;;2.90;0.87;;;;;;;6.57;100.00;97719.25;6228212;28;20239;-52
2023/10/23 05:00:11;;;;;;;3.30;0.77;;;;;;;6.67;100.00;97738.91;6228007;28;20703;-52
2023/10/23 05:03:15;;;;;;;2.67;1.40;;;;;;;6.65;100.00;97742.78;6227345;28;20681;-53
2023/10/23 05:06:17;;;;;;;5.23;1.67;;;;;;;6.62;100.00;97746.69;6226932;28;20242;-51
2023/10/23 05:09:20;;;;;;;9.13;1.70;;;;;;;6.60;100.00;97739.97;6227576;28;20224;-52
2023/10/23 05:12:22;;;;;;;6.37;1.07;;;;;;;6.52;100.00;97733.13;6226877;28;20832;-51
2023/10/23 05:15:24;;;;;;;3.73;0.87;;;;;;;6.50;100.00;97737.81;6228200;28;20490;-52
2023/10/23 05:18:27;;;;;;;6.90;1.30;;;;;;;6.45;100.00;97733.19;6223807;28;20238;-52
2023/10/23 05:21:29;;;;;;;3.23;1.30;;;;;;;6.48;100.00;97734.59;6226212;28;20238;-53
2023/10/23 05:24:31;;;;;;;2.93;1.17;;;;;;;6.52;100.00;97738.44;6227687;28;20246;-52
2023/10/23 05:27:35;;;;;;;5.70;1.80;;;;;;;6.51;100.00;97744.75;6229245;28;20242;-53
2023/10/23 05:30:37;;;;;;;6.67;2.20;;;;;;;6.45;100.00;97745.56;6226706;28;20230;-53
2023/10/23 05:33:39;;;;;;;6.77;2.23;;;;;;;5.99;100.00;97663.88;6227674;28;20279;-53
2023/10/23 05:36:42;;;;;;;3.97;1.80;;;;;;;6.54;100.00;97746.13;6225516;28;20243;-49
2023/10/23 05:39:44;;;;;;;3.37;1.60;;;;;;;6.52;100.00;97762.25;6225642;28;20233;-52
2023/10/23 05:42:46;;;;;;;2.27;1.70;;;;;;;6.54;100.00;97767.31;6223520;28;20867;-53
2023/10/23 05:45:48;;;;;;;1.70;1.43;;;;;;;6.57;100.00;97774.84;6225640;28;20733;-50
2023/10/23 05:48:51;;;;;;;1.77;1.57;;;;;;;6.56;100.00;97768.75;6227637;28;20771;-54
2023/10/23 05:51:53;;;;;;;2.37;1.50;;;;;;;6.54;100.00;97775.25;6226537;28;20726;-55
2023/10/23 05:54:55;;;;;;;2.23;1.67;;;;;;;6.49;100.00;97789.13;6223678;28;20235;-53
2023/10/23 05:57:58;;;;;;;3.53;1.93;;;;;;;6.53;100.00;97786.88;6225010;28;20743;-51
2023/10/23 06:01:04;;;;;;;3.80;2.20;;;;;;;6.53;100.00;97769.16;6224950;28;20322;-51
2023/10/23 06:04:07;;;;;;;3.50;2.03;;;;;;;6.52;100.00;97772.81;6225984;28;20301;-52
2023/10/23 06:07:09;;;;;;;4.13;2.17;;;;;;;6.52;100.00;97786.06;6227596;28;20326;-52
2023/10/23 06:10:12;;;;;;;4.30;3.90;;;;;;;6.55;100.00;97784.81;6225119;28;20240;-53
2023/10/23 06:13:14;;;;;;;3.63;2.97;;;;;;;6.51;100.00;97775.69;6226022;28;20232;-52
2023/10/23 06:16:17;;;;;;;4.73;2.80;;;;;;;6.68;100.00;97790.84;6230729;28;20289;-53
2023/10/23 06:19:19;;;;;;;4.37;2.70;;;;;;;6.67;100.00;97796.34;6223775;28;20595;-52
2023/10/23 06:22:21;;;;;;;4.90;2.50;;;;;;;6.64;100.00;97786.19;6231721;28;20227;-51
2023/10/23 06:25:23;;;;;;;4.93;2.30;;;;;;;6.70;100.00;97786.16;6230141;28;20235;-51
2023/10/23 06:28:27;;;;;;;2.73;2.43;;;;;;;6.72;100.00;97778.00;6229289;28;20243;-52
2023/10/23 06:31:29;;;;;;;3.30;3.00;;;;;;;6.62;100.00;97764.41;6227376;28;20314;-52
2023/10/23 06:34:32;;;;;;;5.87;3.43;;;;;;;6.73;100.00;97780.41;6229513;28;20788;-51
2023/10/23 06:37:34;;;;;;;3.87;2.37;;;;;;;6.81;100.00;97778.53;6227660;28;20238;-51
2023/10/23 06:40:36;;;;;;;3.20;2.73;;;;;;;6.85;100.00;97783.19;6228848;28;20276;-53
2023/10/23 06:43:38;;;;;;;4.80;2.97;;;;;;;6.89;100.00;97783.56;6229478;28;20296;-52
2023/10/23 06:46:40;;;;;;;3.73;3.43;;;;;;;6.93;100.00;97777.63;6228705;28;20246;-52
2023/10/23 06:49:46;;;;;;;4.93;3.67;;;;;;;6.97;100.00;97781.47;6226483;28;20228;-51
2023/10/23 06:52:48;;;;;;;5.00;4.37;;;;;;;6.98;100.00;97790.22;6227550;28;20267;-51
2023/10/23 06:55:52;;;;;;;4.17;3.77;;;;;;;7.05;100.00;97787.53;6230133;28;20763;-50
2023/10/23 06:58:54;;;;;;;4.70;4.30;;;;;;;7.12;100.00;97785.63;6230370;28;20234;-52
2023/10/23 07:01:56;;;;;;;6.20;3.90;;;;;;;7.19;100.00;97783.72;6230567;28;20231;-53
2023/10/23 07:04:59;;;;;;;5.03;4.23;;;;;;;7.27;100.00;97780.81;6230632;28;20240;-53
2023/10/23 07:08:01;;;;;;;5.70;4.30;;;;;;;7.34;100.00;97776.28;6228422;28;20231;-52
2023/10/23 07:11:11;;;;;;;4.23;3.80;;;;;;;7.45;100.00;97778.19;6228595;28;20294;-53
2023/10/23 07:14:14;;;;;;;5.37;4.10;;;;;;;7.55;100.00;97772.38;6230315;28;20777;-53
2023/10/23 07:17:17;;;;;;;8.63;5.20;;;;;;;7.70;100.00;97772.81;6230330;28;20274;-48
2023/10/23 07:20:19;;;;;;;5.17;4.67;;;;;;;7.81;100.00;97771.28;6230766;28;20592;-53
2023/10/23 07:23:22;;;;;;;5.07;4.57;;;;;;;7.96;100.00;97770.91;6229795;28;20226;-52
2023/10/23 07:26:24;;;;;;;5.33;4.70;;;;;;;7.99;100.00;97747.41;6229981;28;20266;-49
2023/10/23 07:29:26;;;;;;;4.10;3.70;;;;;;;8.14;100.00;97767.41;6227862;28;20262;-52
2023/10/23 07:32:29;;;;;;;4.13;3.73;;;;;;;8.13;100.00;97758.66;6226627;28;20220;-52
2023/10/23 07:35:31;;;;;;;3.43;3.10;;;;;;;8.27;100.00;97770.72;6231385;28;20423;-52
2023/10/23 07:38:53;;;;;;;3.70;3.10;;;;;;;8.36;100.00;97771.22;6229199;28;20227;-53
2023/10/23 07:41:55;;;;;;;3.53;3.23;;;;;;;8.45;100.00;97774.38;6220695;28;20228;-52
2023/10/23 07:44:58;;;;;;;4.90;2.90;;;;;;;8.54;100.00;97783.66;6229408;28;20243;-52
2023/10/23 07:48:01;;;;;;;3.40;3.10;;;;;;;8.61;100.00;97780.88;6234847;28;20317;-52
2023/10/23 07:51:04;;;;;;;3.10;2.80;;;;;;;8.69;100.00;97783.22;6252048;28;20215;-53
2023/10/23 07:54:06;;;;;;;4.27;3.07;;;;;;;8.78;100.00;97788.00;6252482;28;20243;-53
2023/10/23 07:57:08;;;;;;;4.00;3.00;;;;;;;8.74;100.00;97768.22;6252645;28;20251;-51
2023/10/23 08:00:14;;;;;;;5.80;3.00;;;;;;;8.94;100.00;97783.06;6252679;28;20303;-53
2023/10/23 08:03:16;;;;;;;3.53;2.83;;;;;;;9.01;100.00;97783.75;6259684;28;20702;-50
2023/10/23 08:06:19;;;;;;;3.77;2.60;;;;;;;9.15;100.00;97779.84;6249688;28;20235;-52
2023/10/23 08:09:21;;;;;;;2.73;2.50;;;;;;;9.18;100.00;97767.94;6252725;28;20229;-52
2023/10/23 08:12:24;;;;;;;2.30;2.10;;;;;;;9.41;100.00;97775.94;6248286;28;20319;-50
2023/10/23 08:15:26;;;;;;;2.70;2.50;;;;;;;9.55;100.00;97777.28;6252750;28;20302;-51
2023/10/23 08:18:28;;;;;;;4.87;3.03;;;;;;;9.69;100.00;97785.84;6255456;28;20228;-49
2023/10/23 08:21:41;;;;;;;2.90;2.63;;;;;;;9.85;100.00;97776.31;6251841;28;20240;-47
2023/10/23 08:24:44;;;;;;;3.63;3.07;;;;;;;9.88;100.00;97770.53;6234486;28;20230;-48
2023/10/23 08:27:46;;;;;;;2.97;2.63;;;;;;;10.17;100.00;97782.03;6252669;28;20282;-50
2023/10/23 08:30:48;;;;;;;3.27;2.57;;;;;;;10.31;100.00;97780.75;6252066;28;20601;-51
2023/10/23 08:33:51;;;;;;;3.73;2.90;;;;;;;10.42;100.00;97765.78;6233977;28;20261;-51
2023/10/23 08:36:53;;;;;;;4.23;2.73;;;;;;;10.66;100.00;97781.66;6251775;28;20233;-50
2023/10/23 08:39:55;;;;;;;4.03;2.67;;;;;;;10.80;100.00;97778.44;6252734;28;20295;-51
2023/10/23 08:42:58;;;;;;;2.90;2.60;;;;;;;10.95;100.00;97782.41;6256565;28;20832;-51
2023/10/23 08:46:00;;;;;;;4.90;2.63;;;;;;;11.13;100.00;97784.81;6252317;28;20234;-49
2023/10/23 08:49:06;;;;;;;4.53;2.70;;;;;;;11.30;100.00;97774.16;6256839;28;20236;-53
2023/10/23 08:52:11;;;;;;;3.77;2.60;;;;;;;11.48;100.00;97773.13;6251418;28;20246;-51
2023/10/23 08:55:14;;;;;;;2.20;1.77;;;;;;;11.75;100.00;97774.00;6252674;28;20312;-56
2023/10/23 08:58:19;;;;;;;2.00;1.80;;;;;;;11.85;100.00;97774.16;6224007;28;20242;-52
2023/10/23 09:01:22;;;;;;;3.33;1.83;;;;;;;12.02;100.00;97776.81;6227765;28;20273;-52
2023/10/23 09:04:25;;;;;;;4.83;1.83;;;;;;;12.13;100.00;97770.53;6228353;28;20366;-51
2023/10/23 09:07:27;;;;;;;2.20;2.00;;;;;;;12.36;100.00;97781.97;6227782;28;20588;-53
2023/10/23 09:10:29;;;;;;;3.43;2.20;;;;;;;12.53;100.00;97780.03;6224655;28;20243;-53
2023/10/23 09:13:38;;;;;;;3.57;2.03;;;;;;;12.89;95.40;97777.69;6226839;28;20235;-52
2023/10/23 09:16:40;;;;;;;2.10;1.73;;;;;;;13.14;91.97;97774.44;6223421;28;20343;-52
2023/10/23 09:19:43;;;;;;;2.33;1.50;;;;;;;13.20;94.99;97759.22;6224521;28;20427;-52
2023/10/23 09:22:49;;;;;;;1.60;1.30;;;;;;;13.68;87.17;97768.94;6226764;28;20235;-52
2023/10/23 09:25:58;;;;;;;1.87;1.27;;;;;;;13.90;83.48;97766.13;6226766;28;20235;-52
2023/10/23 09:29:00;;;;;;;2.30;1.63;;;;;;;13.92;82.53;97775.47;6226527;28;20239;-52
2023/10/23 09:32:02;;;;;;;3.60;1.47;;;;;;;13.94;81.82;97772.56;6224134;28;20326;-52
2023/10/23 09:35:06;;;;;;;2.57;1.40;;;;;;;13.83;82.92;97762.84;6226056;28;20313;-53
2023/10/23 09:38:15;;;;;;;1.87;1.50;;;;;;;13.81;81.74;97771.16;6226634;28;20242;-53
2023/10/23 09:41:17;;;;;;;2.13;1.60;;;;;;;13.76;81.41;97760.41;6226828;28;20234;-53
2023/10/23 09:44:21;;;;;;;3.60;1.50;;;;;;;13.91;79.87;97779.22;6221781;28;20228;-51
2023/10/23 09:47:24;;;;;;;2.60;1.27;;;;;;;13.93;78.47;97769.06;6226819;28;20276;-51
2023/10/23 09:50:27;;;;;;;3.07;1.23;;;;;;;14.01;78.15;97773.13;6224717;28;20258;-51
2023/10/23 09:53:31;;;;;;;3.13;1.10;;;;;;;14.10;77.35;97773.44;6226522;28;20326;-51
2023/10/23 09:56:34;;;;;;;2.17;0.90;;;;;;;14.01;78.40;97772.31;6228484;28;20331;-50
2023/10/23 09:59:51;;;;;;;1.80;1.17;;;;;;;14.19;76.20;97755.78;6230971;28;20807;-49
2023/10/23 10:02:54;;;;;;;1.33;0.90;;;;;;;14.00;77.46;97760.81;6231594;28;20235;-51
2023/10/23 10:06:10;;;;;;;4.27;1.00;;;;;;;14.12;76.28;97769.41;6231238;28;20236;-52
2023/10/23 10:09:13;;;;;;;2.60;1.20;;;;;;;14.16;76.96;97759.78;6230295;28;20224;-53
2023/10/23 10:12:18;;;;;;;1.23;1.00;;;;;;;14.19;77.18;97761.94;6228652;28;20232;-53
2023/10/23 10:15:22;;;;;;;1.77;1.20;;;;;;;14.08;78.24;97752.25;6230732;28;20239;-50
2023/10/23 10:18:25;;;;;;;1.00;0.93;;;;;;;14.11;79.20;97746.38;6207172;28;20265;-53
2023/10/23 10:21:32;;;;;;;2.50;1.13;;;;;;;14.19;79.79;97743.19;6220719;28;20357;-52
2023/10/23 10:24:36;;;;;;;2.00;1.50;;;;;;;14.22;78.65;97743.72;6226651;28;20311;-51
2023/10/23 10:27:39;;;;;;;1.90;1.10;;;;;;;14.16;79.93;97743.72;6229872;28;20351;-51
2023/10/23 10:30:47;;;;;;;2.17;1.40;;;;;;;14.28;78.96;97735.44;6232041;28;20242;-51
2023/10/23 10:33:51;;;;;;;2.30;1.40;;;;;;;14.33;78.39;97730.06;6232146;28;20230;-50
2023/10/23 10:37:14;;;;;;;2.97;2.03;;;;;;;14.18;79.40;97728.16;6240554;28;20319;-52
2023/10/23 10:40:19;;;;;;;3.63;2.00;;;;;;;14.08;80.51;97713.94;6230444;28;20231;-52
2023/10/23 10:43:41;;;;;;;4.10;1.80;;;;;;;14.10;81.12;97707.25;6230970;28;20227;-52
2023/10/23 10:46:44;;;;;;;2.60;1.70;;;;;;;14.19;81.05;97702.19;6229892;28;20327;-52
2023/10/23 10:49:50;;;;;;;4.30;2.07;;;;;;;14.24;80.93;97702.22;6230998;28;20234;-55
2023/10/23 10:53:00;;;;;;;3.30;1.90;;;;;;;14.23;80.02;97708.63;6230518;28;20305;-52
2023/10/23 10:56:07;;;;;;;3.10;1.70;;;;;;;14.21;80.18;97694.69;6228586;28;20271;-50
2023/10/23 10:59:10;;;;;;;3.57;2.30;;;;;;;14.36;79.92;97696.59;6229025;28;20715;-55
2023/10/23 11:02:12;;;;;;;3.27;2.50;;;;;;;14.44;79.72;97694.22;6226551;28;21049;-52
2023/10/23 11:05:15;;;;;;;5.43;2.20;;;;;;;14.57;80.42;97690.22;6222870;28;20235;-54
2023/10/23 11:08:17;;;;;;;7.27;2.17;;;;;;;14.79;79.52;97692.66;6236070;28;20258;-54
2023/10/23 11:11:20;;;;;;;4.20;2.23;;;;;;;14.92;78.33;97689.41;6225626;28;20216;-56
2023/10/23 11:14:24;;;;;;;2.87;2.20;;;;;;;15.06;77.39;97687.00;6230836;28;20231;-57
2023/10/23 11:17:27;;;;;;;3.10;2.67;;;;;;;15.18;76.97;97692.09;6225652;28;20230;-55
2023/10/23 11:20:31;;;;;;;3.90;2.60;;;;;;;14.91;76.90;97665.53;6235379;28;20238;-55
2023/10/23 11:23:33;;;;;;;2.93;2.47;;;;;;;14.96;77.58;97665.53;6228393;28;20224;-54
2023/10/23 11:26:37;;;;;;;4.33;3.03;;;;;;;15.22;76.05;97679.72;6225576;28;20239;-54
2023/10/23 11:29:44;;;;;;;3.37;3.07;;;;;;;15.22;76.02;97679.72;6229782;28;20234;-55
2023/10/23 11:32:50;;;;;;;6.47;3.00;;;;;;;15.21;76.18;97673.53;6229872;28;20235;-55
2023/10/23 11:35:53;;;;;;;3.37;2.43;;;;;;;15.26;77.41;97675.41;6230171;28;20224;-55
2023/10/23 11:38:56;;;;;;;6.83;3.00;;;;;;;15.40;77.54;97672.97;6226042;28;20315;-54
2023/10/23 11:41:59;;;;;;;6.43;3.70;;;;;;;15.43;76.77;97678.59;6229976;28;20239;-54
2023/10/23 11:45:02;;;;;;;4.17;3.30;;;;;;;15.33;76.93;97656.34;6225631;28;20326;-54
2023/10/23 11:48:06;;;;;;;4.47;4.07;;;;;;;15.42;76.87;97681.56;6246156;28;20250;-54
2023/10/23 11:51:09;;;;;;;3.90;3.50;;;;;;;15.33;76.89;97673.25;6225035;28;20354;-53
2023/10/23 11:54:11;;;;;;;6.00;3.90;;;;;;;15.23;77.59;97679.47;6230537;28;20240;-55
2023/10/23 11:57:15;;;;;;;5.13;4.00;;;;;;;15.20;78.64;97676.50;6225065;28;20254;-56
2023/10/23 12:00:21;;;;;;;4.47;3.63;;;;;;;15.33;78.18;97670.59;6230142;28;20228;-55
2023/10/23 12:03:23;;;;;;;3.77;2.97;;;;;;;15.43;75.06;97654.44;6224094;28;20274;-53
2023/10/23 12:06:25;;;;;;;2.40;2.20;;;;;;;15.33;75.20;97642.94;6228916;28;20292;-54
2023/10/23 12:09:28;;;;;;;4.80;2.00;;;;;;;15.41;73.95;97642.34;6229504;28;20305;-55
2023/10/23 12:12:30;;;;;;;3.50;1.60;;;;;;;15.51;74.00;97646.88;6229696;28;20219;-55
2023/10/23 12:15:32;;;;;;;3.80;1.47;;;;;;;15.47;73.60;97643.97;6220665;28;20687;-53
2023/10/23 12:18:35;;;;;;;1.50;1.30;;;;;;;15.50;74.00;97651.47;6227563;28;20227;-55
2023/10/23 12:21:37;;;;;;;1.63;1.27;;;;;;;15.38;73.36;97650.97;6228954;28;20240;-54
2023/10/23 12:24:39;;;;;;;2.43;1.30;;;;;;;15.28;74.53;97632.22;6227971;28;20326;-54
2023/10/23 12:27:42;;;;;;;1.90;0.93;;;;;;;15.30;73.61;97641.59;6224732;28;20242;-54
2023/10/23 12:30:44;;;;;;;1.53;0.90;;;;;;;15.20;73.89;97642.41;6227936;28;20326;-55
2023/10/23 12:33:48;;;;;;;1.37;0.80;;;;;;;15.15;74.90;97641.63;6224689;28;20224;-55
2023/10/23 12:36:51;;;;;;;1.80;1.10;;;;;;;15.11;75.70;97624.47;6229503;28;20234;-55
2023/10/23 12:39:54;;;;;;;4.63;1.13;;;;;;;15.12;76.65;97626.06;6224264;28;20232;-55
2023/10/23 12:42:57;;;;;;;1.53;0.83;;;;;;;15.08;76.50;97612.41;6228204;28;20235;-55
2023/10/23 12:46:00;;;;;;;3.53;1.33;;;;;;;15.15;75.56;97626.34;6229002;28;20244;-54
2023/10/23 12:49:03;;;;;;;2.47;1.57;;;;;;;15.45;75.57;97632.69;6227815;28;20623;-55
2023/10/23 12:52:05;;;;;;;4.07;1.40;;;;;;;15.17;77.65;97628.72;6228065;28;20248;-52
2023/10/23 12:55:08;;;;;;;2.77;1.30;;;;;;;15.24;77.95;97629.28;6226179;28;20239;-55
2023/10/23 12:58:10;;;;;;;2.03;1.20;;;;;;;15.03;79.33;97620.47;6228219;28;20227;-54
2023/10/23 13:01:13;;;;;;;2.50;1.00;;;;;;;15.03;80.06;97617.78;6228128;28;20231;-55
2023/10/23 13:04:15;;;;;;;1.93;0.93;;;;;;;14.91;81.21;97611.91;6226448;28;20239;-54
2023/10/23 13:07:18;;;;;;;2.67;1.07;;;;;;;15.10;78.76;97610.25;6223852;28;20285;-54
2023/10/23 13:10:20;;;;;;;2.47;1.03;;;;;;;14.94;80.33;97617.53;6223522;28;20782;-55
2023/10/23 13:13:23;;;;;;;4.17;1.10;;;;;;;14.80;81.33;97604.94;6206358;28;20655;-56
2023/10/23 13:16:26;;;;;;;1.33;1.00;;;;;;;14.99;81.00;97603.31;6227531;28;20266;-55
2023/10/23 13:19:28;;;;;;;2.03;1.27;;;;;;;14.80;80.98;97599.59;6225465;28;20238;-54
2023/10/23 13:22:31;;;;;;;1.77;1.10;;;;;;;14.76;81.85;97591.28;6219124;28;20231;-56
2023/10/23 13:25:34;;;;;;;2.70;1.40;;;;;;;14.74;82.18;97592.63;6226906;28;20234;-55
2023/10/23 13:28:37;;;;;;;2.93;0.97;;;;;;;14.75;82.36;97602.28;6231124;28;20229;-56
2023/10/23 13:31:39;;;;;;;1.87;1.13;;;;;;;14.71;83.96;97596.66;6234426;28;20238;-53
2023/10/23 13:34:42;;;;;;;1.47;0.90;;;;;;;14.57;84.13;97599.06;6235290;28;20450;-48
2023/10/23 13:37:46;;;;;;;1.70;1.27;;;;;;;14.81;83.07;97606.56;6239331;28;20228;-53
2023/10/23 13:40:48;;;;;;;2.83;1.40;;;;;;;14.73;83.12;97612.44;6231457;28;20231;-54
2023/10/23 13:43:51;;;;;;;5.20;1.80;;;;;;;14.71;83.35;97602.81;6231965;28;20262;-52
2023/10/23 13:46:53;;;;;;;3.77;1.40;;;;;;;14.74;83.56;97606.03;6228080;28;20231;-49
2023/10/23 13:49:58;;;;;;;3.73;1.50;;;;;;;14.75;84.49;97616.50;6230907;28;20602;-51
2023/10/23 13:53:00;;;;;;;1.30;1.20;;;;;;;14.75;84.79;97607.63;6217887;28;20251;-53
2023/10/23 13:56:03;;;;;;;4.63;1.87;;;;;;;14.73;85.91;97604.41;6207559;28;20217;-48
2023/10/23 13:59:05;;;;;;;5.90;1.47;;;;;;;14.70;86.22;97603.88;6206485;28;20232;-48
2023/10/23 14:02:07;;;;;;;4.60;2.13;;;;;;;14.71;87.40;97602.00;6208399;28;20275;-49
2023/10/23 14:05:09;;;;;;;2.63;1.60;;;;;;;14.71;87.37;97610.84;6200401;28;20228;-52
2023/10/23 14:08:12;;;;;;;2.73;2.20;;;;;;;14.69;88.66;97606.84;6204966;28;20294;-51
2023/10/23 14:11:14;;;;;;;2.70;2.50;;;;;;;14.60;90.49;97597.72;6205025;28;20250;-51
2023/10/23 14:14:36;;;;;;;3.50;1.90;;;;;;;14.62;90.20;97595.56;6207863;28;20240;-51
2023/10/23 14:17:39;;;;;;;7.17;2.83;;;;;;;14.81;90.13;97599.31;6202662;28;20240;-50
2023/10/23 14:20:42;;;;;;;3.50;2.00;;;;;;;14.65;91.18;97595.84;6203452;28;20383;-51
2023/10/23 14:23:44;;;;;;;6.60;2.30;;;;;;;14.70;91.73;97593.16;6211980;28;20224;-52